Time;durP1;ratioP1;P1;durP2;ratioP2;P2;SDS_P1;SDS_P2;PMS_P1;PMS_P2;Temp;Humidity;BMP_temperature;BMP_pressure;BME280_temperature;BME280_humidity;BME280_pressure;Samples;Min_cycle;Max_cycle;Signal;HPM_P1;HPM_P2
2023/08/08 00:00:22;;;;;;;6.10;2.90;;;;;;;16.70;77.99;99191.17;108377;1258;59148;-84
2023/08/08 00:02:50;;;;;;;4.80;3.20;;;;;;;16.69;77.81;99194.48;107545;1253;60058;-82
2023/08/08 00:05:17;;;;;;;3.70;3.20;;;;;;;16.63;77.83;99191.56;106520;1253;72366;-80
2023/08/08 00:07:45;;;;;;;3.20;2.70;;;;;;;16.61;77.93;99191.86;107095;1256;69209;-84
2023/08/08 00:10:12;;;;;;;4.00;2.80;;;;;;;16.65;77.86;99187.33;108244;1253;72527;-83
2023/08/08 00:12:40;;;;;;;3.50;2.80;;;;;;;16.66;77.79;99190.80;109225;1253;58747;-86
2023/08/08 00:15:08;;;;;;;3.50;2.60;;;;;;;16.63;77.79;99195.48;109163;1252;59666;-84
2023/08/08 00:17:36;;;;;;;4.40;2.90;;;;;;;16.61;77.92;99198.39;108377;1253;71729;-85
2023/08/08 00:20:05;;;;;;;3.10;2.40;;;;;;;16.61;77.98;99198.94;108073;1253;68701;-86
2023/08/08 00:22:33;;;;;;;3.90;2.50;;;;;;;16.66;77.87;99206.05;107642;1258;71642;-85
2023/08/08 00:25:01;;;;;;;3.10;2.80;;;;;;;16.63;77.85;99204.42;106231;1253;59840;-84
2023/08/08 00:27:29;;;;;;;4.60;2.90;;;;;;;16.59;77.96;99206.75;106089;1253;59544;-85
2023/08/08 00:29:56;;;;;;;3.70;3.20;;;;;;;16.54;78.12;99208.89;106076;1258;72998;-84
2023/08/08 00:32:24;;;;;;;3.20;2.90;;;;;;;16.55;78.08;99209.91;108443;1252;68933;-87
2023/08/08 00:34:51;;;;;;;3.60;2.80;;;;;;;16.56;78.14;99212.09;107260;1253;71957;-88
2023/08/08 00:37:18;;;;;;;4.10;3.30;;;;;;;16.52;78.26;99208.91;106740;1256;59711;-86
2023/08/08 00:39:46;;;;;;;3.10;2.80;;;;;;;16.46;78.60;99210.11;107293;1253;60022;-87
2023/08/08 00:42:14;;;;;;;5.90;2.50;;;;;;;16.44;78.71;99206.63;106701;1260;71511;-86
2023/08/08 00:44:41;;;;;;;4.30;2.50;;;;;;;16.48;78.65;99203.36;106895;1253;70276;-85
2023/08/08 00:47:09;;;;;;;4.50;3.10;;;;;;;16.45;78.54;99202.38;106397;1253;71466;-84
2023/08/08 00:49:36;;;;;;;3.40;2.90;;;;;;;16.40;78.89;99200.85;107579;1253;60114;-82
2023/08/08 00:52:04;;;;;;;3.20;2.90;;;;;;;16.35;79.13;99206.16;107222;1258;59634;-84
2023/08/08 00:54:32;;;;;;;3.40;2.70;;;;;;;16.38;79.12;99209.02;105823;1253;71529;-84
2023/08/08 00:56:59;;;;;;;3.30;2.80;;;;;;;16.40;79.01;99205.14;107798;1253;68936;-85
2023/08/08 00:59:27;;;;;;;3.40;3.10;;;;;;;16.36;78.99;99206.62;108298;1253;71517;-85
2023/08/08 01:01:54;;;;;;;5.10;3.10;;;;;;;16.30;79.26;99205.38;108382;1253;59713;-84
2023/08/08 01:04:22;;;;;;;3.20;2.50;;;;;;;16.30;79.47;99205.38;107023;1253;59585;-84
2023/08/08 01:07:16;;;;;;;3.20;2.60;;;;;;;16.35;79.26;99207.66;108625;1258;72027;-83
2023/08/08 01:09:57;;;;;;;3.80;3.10;;;;;;;16.30;79.39;99209.83;108778;1253;68692;-85
2023/08/08 01:12:25;;;;;;;2.80;2.50;;;;;;;16.25;79.41;99203.06;108166;1253;71249;-80
2023/08/08 01:14:53;;;;;;;3.50;2.70;;;;;;;16.29;79.55;99207.63;106971;1253;60533;-83
2023/08/08 01:17:20;;;;;;;3.40;3.10;;;;;;;16.32;79.35;99208.79;106479;1258;60550;-81
2023/08/08 01:19:48;;;;;;;3.90;2.60;;;;;;;16.28;79.40;99213.81;106904;1252;76378;-80
2023/08/08 01:22:23;;;;;;;4.50;3.00;;;;;;;16.22;79.52;99215.34;107864;1252;68728;-81
2023/08/08 01:24:52;;;;;;;4.50;2.60;;;;;;;16.22;79.60;99216.30;108782;1253;71088;-83
2023/08/08 01:27:20;;;;;;;3.30;2.70;;;;;;;16.26;79.49;99216.80;108567;1253;59153;-80
2023/08/08 01:29:47;;;;;;;4.80;3.30;;;;;;;16.23;79.59;99219.77;107031;1252;61040;-80
2023/08/08 01:32:15;;;;;;;5.30;3.20;;;;;;;16.17;79.74;99218.43;108431;1253;72612;-80
2023/08/08 01:34:42;;;;;;;3.50;2.60;;;;;;;16.13;79.89;99218.17;106155;1253;68902;-80
2023/08/08 01:37:30;;;;;;;4.30;3.00;;;;;;;16.18;79.86;99225.64;106053;1253;72227;-79
2023/08/08 01:39:59;;;;;;;4.50;2.90;;;;;;;16.12;80.01;99223.86;105912;1254;60412;-79
2023/08/08 01:42:27;;;;;;;3.40;2.70;;;;;;;16.05;80.29;99224.56;105866;1253;60613;-79
2023/08/08 01:44:55;;;;;;;4.40;2.90;;;;;;;15.99;80.50;99225.81;106073;1253;73982;-82
2023/08/08 01:47:22;;;;;;;2.80;2.40;;;;;;;16.00;80.50;99232.89;106074;1253;70163;-85
2023/08/08 01:49:50;;;;;;;4.00;3.00;;;;;;;16.00;80.66;99237.59;105888;1259;72698;-81
2023/08/08 01:52:18;;;;;;;3.60;2.90;;;;;;;15.93;80.84;99237.84;106647;1253;60438;-83
2023/08/08 01:54:46;;;;;;;5.50;2.90;;;;;;;15.87;81.12;99236.39;106660;1253;60550;-84
2023/08/08 01:57:13;;;;;;;4.10;2.80;;;;;;;15.89;81.11;99238.39;106002;1253;73916;-83
2023/08/08 01:59:42;;;;;;;4.00;2.60;;;;;;;15.90;81.13;99243.73;106239;1258;69499;-84
2023/08/08 02:02:09;;;;;;;4.30;3.10;;;;;;;15.85;81.32;99248.27;106059;1256;72745;-82
2023/08/08 02:04:37;;;;;;;3.20;2.70;;;;;;;15.78;81.52;99247.19;105917;1259;60508;-81
2023/08/08 02:07:04;;;;;;;2.70;2.40;;;;;;;15.74;81.71;99245.48;107625;1253;60525;-81
2023/08/08 02:09:32;;;;;;;3.90;2.70;;;;;;;15.78;81.71;99245.30;107158;1253;72547;-81
2023/08/08 02:11:59;;;;;;;3.90;2.70;;;;;;;15.79;81.65;99249.57;105884;1253;68345;-82
2023/08/08 02:14:27;;;;;;;3.70;3.20;;;;;;;15.74;81.84;99258.11;106249;1256;70565;-83
2023/08/08 02:16:55;;;;;;;3.50;2.90;;;;;;;15.68;82.21;99260.88;106229;1253;61615;-82
2023/08/08 02:19:22;;;;;;;4.00;2.60;;;;;;;15.69;82.20;99262.15;105922;1253;60605;-81
2023/08/08 02:21:50;;;;;;;2.80;2.60;;;;;;;15.70;82.12;99269.16;107100;1253;72227;-81
2023/08/08 02:24:17;;;;;;;3.40;2.90;;;;;;;15.66;82.41;99267.28;108087;1253;68727;-82
2023/08/08 02:26:45;;;;;;;3.40;3.00;;;;;;;15.61;82.48;99272.08;106199;1253;71444;-81
2023/08/08 02:29:12;;;;;;;5.80;2.50;;;;;;;15.61;82.58;99271.98;107178;1253;62090;-84
2023/08/08 02:31:40;;;;;;;4.40;3.10;;;;;;;15.65;82.42;99272.39;107657;1253;60499;-86
2023/08/08 02:34:07;;;;;;;3.80;2.80;;;;;;;15.64;82.60;99274.91;108944;1253;72839;-85
2023/08/08 02:36:34;;;;;;;4.40;2.70;;;;;;;15.59;82.70;99279.49;109114;1253;68736;-83
2023/08/08 02:39:03;;;;;;;4.10;2.90;;;;;;;15.57;82.79;99279.10;108616;1254;71702;-83
2023/08/08 02:41:30;;;;;;;4.80;2.60;;;;;;;15.63;82.63;99275.20;106955;1253;61852;-84
2023/08/08 02:43:58;;;;;;;4.90;3.10;;;;;;;15.64;82.71;99274.48;107094;1253;59537;-82
2023/08/08 02:46:26;;;;;;;6.80;3.30;;;;;;;15.58;82.59;99278.89;107183;1253;72582;-85
2023/08/08 02:48:53;;;;;;;3.50;2.60;;;;;;;15.53;82.98;99281.34;107494;1260;69198;-84
2023/08/08 02:51:21;;;;;;;4.00;2.80;;;;;;;15.57;83.16;99286.17;105917;1253;72677;-83
2023/08/08 02:53:48;;;;;;;3.40;2.70;;;;;;;15.56;82.90;99282.18;105917;1258;60444;-85
2023/08/08 02:56:16;;;;;;;3.30;2.90;;;;;;;15.50;83.28;99289.78;105805;1260;60449;-86
2023/08/08 02:58:43;;;;;;;5.90;2.30;;;;;;;15.45;83.24;99289.56;105769;1253;72774;-85
2023/08/08 03:01:13;;;;;;;2.70;2.50;;;;;;;15.49;83.31;99284.02;105893;1261;69043;-86
2023/08/08 03:03:41;;;;;;;3.00;2.60;;;;;;;15.50;83.58;99279.77;105841;1258;72642;-85
2023/08/08 03:06:09;;;;;;;3.80;3.00;;;;;;;15.45;83.38;99276.05;108229;1253;61075;-85
2023/08/08 03:08:37;;;;;;;2.70;2.40;;;;;;;15.42;83.60;99281.20;108014;1253;61236;-84
2023/08/08 03:11:05;;;;;;;3.70;2.90;;;;;;;15.49;83.40;99284.73;107699;1253;72408;-85
2023/08/08 03:13:32;;;;;;;4.40;2.80;;;;;;;15.54;83.49;99288.05;108959;1253;69050;-84
2023/08/08 03:16:04;;;;;;;3.60;2.70;;;;;;;15.52;83.40;99285.41;107154;1256;71522;-85
2023/08/08 03:18:32;;;;;;;3.90;2.30;;;;;;;15.50;83.83;99295.09;106672;1253;61740;-84
2023/08/08 03:20:59;;;;;;;2.70;2.40;;;;;;;15.57;83.73;99300.30;107882;1253;60419;-85
2023/08/08 03:23:28;;;;;;;3.50;2.60;;;;;;;15.62;83.58;99304.81;107651;1253;73811;-84
2023/08/08 03:25:56;;;;;;;5.00;2.60;;;;;;;15.59;83.58;99300.70;106841;1253;70451;-82
2023/08/08 03:28:25;;;;;;;2.40;2.20;;;;;;;15.59;83.69;99303.05;106055;1256;72584;-83
2023/08/08 03:30:53;;;;;;;2.60;2.20;;;;;;;15.65;83.59;99301.52;105912;1261;60466;-85
2023/08/08 03:33:20;;;;;;;2.80;2.60;;;;;;;15.72;83.28;99310.55;105905;1258;59268;-85
2023/08/08 03:35:49;;;;;;;5.90;2.40;;;;;;;15.72;83.28;99323.73;106028;1253;73146;-84
2023/08/08 03:38:16;;;;;;;3.50;2.60;;;;;;;15.69;83.44;99325.68;106115;1256;68315;-85
2023/08/08 03:40:44;;;;;;;3.00;2.50;;;;;;;15.71;83.31;99324.77;106266;1256;70738;-85
2023/08/08 03:43:11;;;;;;;6.00;2.70;;;;;;;15.78;83.19;99321.36;106547;1253;60471;-84
2023/08/08 03:45:39;;;;;;;3.20;2.90;;;;;;;15.79;83.00;99331.14;108768;1253;58799;-84
2023/08/08 03:48:06;;;;;;;3.50;2.70;;;;;;;15.78;83.16;99330.78;108935;1253;71837;-83
2023/08/08 03:50:34;;;;;;;2.90;2.30;;;;;;;15.80;82.98;99333.50;108452;1253;68897;-82
2023/08/08 03:53:01;;;;;;;2.80;2.50;;;;;;;15.89;82.76;99332.14;108202;1258;71936;-81
2023/08/08 03:55:29;;;;;;;3.10;2.70;;;;;;;15.93;82.43;99333.56;108036;1253;61224;-85
2023/08/08 03:57:57;;;;;;;4.00;2.70;;;;;;;15.92;82.66;99334.92;107187;1253;60401;-85
2023/08/08 04:00:24;;;;;;;3.10;2.40;;;;;;;15.92;82.56;99337.95;106339;1253;74315;-82
2023/08/08 04:02:52;;;;;;;3.00;2.60;;;;;;;16.01;82.48;99342.85;106221;1261;70145;-83
2023/08/08 04:05:19;;;;;;;3.30;2.60;;;;;;;16.08;82.26;99347.52;107320;1260;72717;-80
2023/08/08 04:07:47;;;;;;;5.50;2.80;;;;;;;16.10;82.09;99349.08;107658;1258;60357;-81
2023/08/08 04:10:14;;;;;;;3.30;2.60;;;;;;;16.11;82.01;99354.21;106925;1253;60426;-86
2023/08/08 04:12:42;;;;;;;3.00;2.60;;;;;;;16.16;82.32;99356.09;107857;1253;74324;-84
2023/08/08 04:15:09;;;;;;;2.90;2.60;;;;;;;16.32;81.71;99362.81;107721;1260;68993;-86
2023/08/08 04:17:37;;;;;;;3.50;2.40;;;;;;;16.46;81.22;99371.31;106306;1257;71257;-84
2023/08/08 04:20:06;;;;;;;5.70;2.90;;;;;;;16.52;80.95;99373.58;106062;1255;60388;-87
2023/08/08 04:22:33;;;;;;;4.20;2.70;;;;;;;16.57;81.01;99375.20;106199;1253;60345;-87
2023/08/08 04:25:01;;;;;;;5.10;2.60;;;;;;;16.70;80.69;99381.59;107365;1253;72762;-83
2023/08/08 04:27:29;;;;;;;3.70;2.50;;;;;;;16.89;80.01;99377.36;106212;1258;68743;-83
2023/08/08 04:29:56;;;;;;;3.60;2.40;;;;;;;16.99;79.73;99377.44;106125;1260;71695;-84
2023/08/08 04:32:24;;;;;;;4.60;2.50;;;;;;;17.02;79.59;99376.68;107129;1258;60597;-81
2023/08/08 04:34:51;;;;;;;4.50;2.60;;;;;;;17.04;79.46;99386.94;107327;1257;60642;-81
2023/08/08 04:37:19;;;;;;;2.80;2.60;;;;;;;17.08;79.40;99394.17;105829;1258;73353;-81
2023/08/08 04:39:46;;;;;;;2.80;2.30;;;;;;;17.24;79.27;99396.85;106108;1259;69817;-84
2023/08/08 04:42:13;;;;;;;3.40;2.60;;;;;;;17.38;78.54;99405.11;106478;1259;72670;-82
2023/08/08 04:44:41;;;;;;;2.90;2.50;;;;;;;17.40;78.32;99412.49;105998;1255;60572;-83
2023/08/08 04:47:08;;;;;;;4.00;2.90;;;;;;;17.40;78.16;99418.04;106133;1254;60626;-82
2023/08/08 04:49:36;;;;;;;2.90;2.40;;;;;;;17.37;78.01;99416.05;106162;1254;72664;-82
2023/08/08 04:52:03;;;;;;;3.40;2.30;;;;;;;17.40;77.99;99417.93;106423;1258;69207;-83
2023/08/08 04:54:31;;;;;;;2.80;2.30;;;;;;;17.47;77.67;99418.02;106591;1256;72722;-83
2023/08/08 04:56:58;;;;;;;4.80;2.70;;;;;;;17.47;77.67;99414.59;108170;1253;59135;-82
2023/08/08 04:59:26;;;;;;;3.00;2.60;;;;;;;17.48;77.68;99408.43;108759;1258;58932;-84
2023/08/08 05:01:53;;;;;;;2.90;2.50;;;;;;;17.54;77.72;99405.98;107309;1257;72984;-80
2023/08/08 05:04:21;;;;;;;4.30;2.00;;;;;;;17.62;77.32;99408.34;106571;1260;70131;-79
2023/08/08 05:06:48;;;;;;;2.20;2.00;;;;;;;17.73;76.79;99403.02;106666;1257;71248;-79
2023/08/08 05:09:15;;;;;;;3.00;2.10;;;;;;;17.76;76.39;99404.77;107231;1258;60330;-78
2023/08/08 05:11:55;;;;;;;2.50;2.20;;;;;;;17.73;76.37;99405.95;107132;1251;60334;-77
2023/08/08 05:14:22;;;;;;;3.00;2.40;;;;;;;17.69;76.10;99407.69;108371;1253;72055;-78
2023/08/08 05:16:50;;;;;;;3.40;2.40;;;;;;;17.70;75.91;99410.61;108804;1253;68875;-80
2023/08/08 05:19:17;;;;;;;2.30;2.10;;;;;;;17.80;75.31;99411.23;106474;1256;72754;-80
2023/08/08 05:21:45;;;;;;;3.60;2.10;;;;;;;17.87;74.84;99415.23;105955;1255;60912;-80
2023/08/08 05:24:12;;;;;;;2.50;2.30;;;;;;;17.89;74.26;99420.24;105866;1257;60638;-83
2023/08/08 05:26:40;;;;;;;3.60;1.70;;;;;;;17.92;73.90;99420.26;105817;1257;73996;-80
2023/08/08 05:29:07;;;;;;;3.00;1.70;;;;;;;17.95;73.67;99423.24;105984;1260;70112;-75
2023/08/08 05:31:35;;;;;;;2.40;2.20;;;;;;;18.00;73.90;99422.86;106257;1257;70804;-81
2023/08/08 05:34:02;;;;;;;2.90;2.10;;;;;;;18.06;73.64;99422.29;105852;1257;60464;-79
2023/08/08 05:36:30;;;;;;;4.70;1.90;;;;;;;18.19;72.95;99426.42;105909;1259;60413;-80
2023/08/08 05:38:57;;;;;;;3.20;2.00;;;;;;;18.34;72.60;99425.66;105851;1257;72610;-76
2023/08/08 05:41:25;;;;;;;1.70;1.60;;;;;;;18.47;72.19;99426.91;105857;1259;68748;-79
2023/08/08 05:43:52;;;;;;;2.60;1.80;;;;;;;18.56;70.85;99425.38;105977;1255;71744;-79
2023/08/08 05:46:19;;;;;;;3.60;1.70;;;;;;;18.62;70.13;99424.09;105915;1255;60610;-77
2023/08/08 05:48:47;;;;;;;1.70;1.60;;;;;;;18.70;70.03;99424.03;106042;1259;60359;-76
2023/08/08 05:51:14;;;;;;;1.60;1.50;;;;;;;18.81;69.03;99424.34;105969;1258;73775;-75
2023/08/08 05:53:42;;;;;;;2.70;1.70;;;;;;;18.93;69.19;99423.54;105419;1259;69190;-74
2023/08/08 05:56:09;;;;;;;3.70;1.70;;;;;;;19.10;69.40;99429.13;105260;1259;71908;-75
2023/08/08 05:58:37;;;;;;;2.10;1.80;;;;;;;19.25;67.72;99435.14;105495;1258;60381;-73
2023/08/08 06:01:09;;;;;;;2.40;2.00;;;;;;;19.30;66.85;99433.85;105662;1259;60361;-76
2023/08/08 06:03:39;;;;;;;1.90;1.20;;;;;;;19.32;66.15;99434.45;105973;1256;71817;-76
2023/08/08 06:06:07;;;;;;;1.90;1.80;;;;;;;19.33;65.94;99433.27;106287;1260;70321;-75
2023/08/08 06:08:34;;;;;;;1.50;1.40;;;;;;;19.32;66.57;99435.48;106035;1259;74011;-74
2023/08/08 06:11:02;;;;;;;2.00;1.60;;;;;;;19.35;66.45;99434.39;105772;1259;60463;-75
2023/08/08 06:13:29;;;;;;;3.60;1.80;;;;;;;19.36;66.54;99436.41;105532;1254;60563;-75
2023/08/08 06:15:57;;;;;;;2.90;1.70;;;;;;;19.35;66.45;99435.46;105640;1254;72788;-75
2023/08/08 06:18:25;;;;;;;3.60;1.70;;;;;;;19.32;66.57;99443.33;105663;1259;69161;-75
2023/08/08 06:20:52;;;;;;;2.00;1.70;;;;;;;19.27;66.99;99443.43;105504;1256;71354;-76
2023/08/08 06:23:20;;;;;;;3.30;2.40;;;;;;;19.21;67.58;99440.17;105470;1256;60574;-75
2023/08/08 06:25:47;;;;;;;1.80;1.60;;;;;;;19.15;67.72;99435.71;105306;1254;60356;-75
2023/08/08 06:28:15;;;;;;;3.50;2.50;;;;;;;19.13;68.19;99436.45;105831;1259;72863;-75
2023/08/08 06:30:42;;;;;;;3.70;2.70;;;;;;;19.13;68.65;99442.59;106022;1253;70478;-74
2023/08/08 06:33:10;;;;;;;2.10;1.90;;;;;;;19.14;68.28;99447.41;107210;1256;71054;-78
2023/08/08 06:35:38;;;;;;;4.90;1.90;;;;;;;19.16;68.19;99448.88;106346;1260;60411;-78
2023/08/08 06:38:06;;;;;;;2.80;1.80;;;;;;;19.18;68.13;99451.94;105837;1257;60541;-76
2023/08/08 06:40:33;;;;;;;4.00;2.00;;;;;;;19.20;68.43;99457.71;105588;1254;73754;-78
2023/08/08 06:43:01;;;;;;;5.40;2.50;;;;;;;19.23;68.69;99457.88;105336;1259;70084;-79
2023/08/08 06:45:29;;;;;;;2.30;1.90;;;;;;;19.27;68.68;99454.41;106003;1254;72547;-78
2023/08/08 06:47:57;;;;;;;5.30;2.00;;;;;;;19.31;68.60;99456.93;107424;1259;60412;-79
2023/08/08 06:50:25;;;;;;;2.50;2.20;;;;;;;19.33;68.96;99445.35;107146;1258;59550;-80
2023/08/08 06:52:52;;;;;;;3.20;1.90;;;;;;;19.46;68.72;99447.27;106053;1260;73086;-79
2023/08/08 06:55:20;;;;;;;2.40;1.80;;;;;;;19.60;68.25;99455.20;105848;1269;68729;-77
2023/08/08 06:57:47;;;;;;;2.10;1.90;;;;;;;19.64;67.93;99460.31;105881;1259;73044;-79
2023/08/08 07:00:16;;;;;;;2.70;2.20;;;;;;;19.68;67.83;99468.89;107112;1254;60297;-77
2023/08/08 07:02:43;;;;;;;2.70;1.80;;;;;;;19.73;67.59;99468.70;106365;1257;60524;-78
2023/08/08 07:05:11;;;;;;;3.00;2.20;;;;;;;19.82;67.48;99464.40;105848;1259;74039;-78
2023/08/08 07:07:38;;;;;;;3.70;2.20;;;;;;;19.93;66.81;99465.61;106077;1267;68730;-78
2023/08/08 07:10:07;;;;;;;2.60;2.20;;;;;;;20.05;66.96;99465.54;106603;1259;72674;-79
2023/08/08 07:12:35;;;;;;;3.40;2.40;;;;;;;20.19;66.54;99466.05;106048;1257;60578;-79
2023/08/08 07:15:05;;;;;;;2.40;2.20;;;;;;;20.30;65.95;99474.90;106145;1259;60341;-78
2023/08/08 07:17:33;;;;;;;3.70;2.10;;;;;;;20.33;65.25;99477.73;107225;1253;75496;-77
2023/08/08 07:20:02;;;;;;;2.00;1.90;;;;;;;20.34;64.63;99481.36;107862;1254;69133;-79
2023/08/08 07:22:30;;;;;;;2.40;2.20;;;;;;;20.31;63.58;99474.98;107118;1254;71246;-78
2023/08/08 07:24:58;;;;;;;2.40;2.10;;;;;;;20.30;63.72;99480.30;105777;1262;60448;-78
2023/08/08 07:27:28;;;;;;;2.80;2.50;;;;;;;20.29;62.71;99481.36;105713;1259;60584;-78
2023/08/08 07:29:56;;;;;;;2.10;1.60;;;;;;;20.23;62.29;99485.73;105699;1257;72589;-78
2023/08/08 07:32:24;;;;;;;1.80;1.60;;;;;;;20.19;61.94;99478.19;105721;1255;69968;-78
2023/08/08 07:34:51;;;;;;;3.80;2.10;;;;;;;20.20;62.08;99480.98;105503;1261;72499;-78
2023/08/08 07:37:18;;;;;;;2.00;1.80;;;;;;;20.27;62.64;99476.85;105560;1257;60473;-77
2023/08/08 07:39:49;;;;;;;2.40;1.60;;;;;;;20.39;63.07;99473.41;105613;1258;60408;-78
2023/08/08 07:42:18;;;;;;;4.50;1.80;;;;;;;20.53;62.69;99478.45;105698;1254;73921;-79
2023/08/08 07:44:45;;;;;;;1.90;1.70;;;;;;;20.61;61.73;99481.11;105343;1261;69657;-79
2023/08/08 07:47:13;;;;;;;2.80;1.80;;;;;;;20.70;61.48;99472.43;106031;1257;71477;-79
2023/08/08 07:49:41;;;;;;;2.20;2.00;;;;;;;20.83;61.48;99467.38;106030;1261;60489;-78
2023/08/08 07:52:08;;;;;;;2.00;1.60;;;;;;;20.98;61.32;99458.45;105862;1257;60459;-78
2023/08/08 07:54:36;;;;;;;2.00;1.60;;;;;;;21.16;59.55;99463.52;106118;1254;71614;-79
2023/08/08 07:57:04;;;;;;;1.70;1.50;;;;;;;21.33;58.67;99462.29;105999;1257;68717;-79
2023/08/08 07:59:31;;;;;;;2.20;1.60;;;;;;;21.47;58.10;99464.96;105615;1257;71109;-79
2023/08/08 08:01:59;;;;;;;1.60;1.50;;;;;;;21.60;58.10;99465.89;105866;1257;60463;-78
2023/08/08 08:04:26;;;;;;;4.50;2.10;;;;;;;21.70;58.19;99469.28;105974;1254;60476;-79
2023/08/08 08:06:54;;;;;;;1.80;1.70;;;;;;;21.78;57.98;99472.16;107139;1254;75944;-77
2023/08/08 08:09:22;;;;;;;1.80;1.70;;;;;;;21.83;57.35;99476.86;107948;1253;68755;-77
2023/08/08 08:11:50;;;;;;;3.10;1.90;;;;;;;21.84;57.25;99482.08;107335;1254;73684;-77
2023/08/08 08:14:17;;;;;;;1.70;1.60;;;;;;;21.84;57.46;99482.70;105793;1258;60538;-77
2023/08/08 08:16:46;;;;;;;5.80;3.90;;;;;;;21.80;57.71;99479.96;105748;1253;60536;-78
2023/08/08 08:19:13;;;;;;;2.40;2.20;;;;;;;21.78;58.36;99479.39;105396;1254;73267;-78
2023/08/08 08:21:40;;;;;;;2.40;2.10;;;;;;;21.76;58.49;99476.16;105732;1257;70297;-77
2023/08/08 08:24:08;;;;;;;2.90;1.90;;;;;;;21.71;58.57;99468.42;105559;1259;71415;-78
2023/08/08 08:26:36;;;;;;;1.80;1.50;;;;;;;21.72;58.28;99465.19;106189;1254;60287;-79
2023/08/08 08:29:04;;;;;;;2.20;1.90;;;;;;;21.71;57.94;99470.10;106850;1252;60384;-78
2023/08/08 08:31:31;;;;;;;2.30;2.10;;;;;;;21.69;58.66;99462.70;107332;1260;73841;-78
2023/08/08 08:33:59;;;;;;;1.80;1.70;;;;;;;21.73;58.64;99469.86;107426;1253;68908;-78
2023/08/08 08:36:26;;;;;;;4.90;1.90;;;;;;;21.80;58.81;99474.06;107174;1254;72774;-78
2023/08/08 08:38:54;;;;;;;2.50;2.10;;;;;;;21.84;58.38;99474.38;106085;1254;60305;-78
2023/08/08 08:41:27;;;;;;;1.90;1.70;;;;;;;21.84;58.39;99470.92;105627;1258;60436;-78
2023/08/08 08:43:54;;;;;;;2.20;1.80;;;;;;;21.86;58.35;99474.25;105601;1254;73864;-77
2023/08/08 08:46:22;;;;;;;2.50;1.70;;;;;;;21.89;57.63;99474.36;105346;1269;69622;-78
2023/08/08 08:48:50;;;;;;;3.30;2.00;;;;;;;21.94;57.48;99474.32;106299;1254;71543;-78
2023/08/08 08:51:18;;;;;;;2.50;2.20;;;;;;;22.02;56.80;99473.66;106043;1254;60567;-78
2023/08/08 08:53:46;;;;;;;2.10;1.60;;;;;;;22.06;57.00;99470.48;105715;1258;60449;-78
2023/08/08 08:56:14;;;;;;;2.20;1.70;;;;;;;22.12;56.67;99468.12;105429;1254;74398;-79
2023/08/08 08:58:42;;;;;;;1.70;1.60;;;;;;;22.19;56.29;99471.46;105392;1254;70650;-79
2023/08/08 09:01:09;;;;;;;4.70;1.80;;;;;;;22.23;56.35;99470.73;106044;1258;71674;-79
2023/08/08 09:03:38;;;;;;;1.60;1.40;;;;;;;22.24;56.49;99466.77;105886;1258;60467;-78
2023/08/08 09:06:06;;;;;;;2.20;1.50;;;;;;;22.31;55.74;99460.55;105577;1258;60345;-78
2023/08/08 09:08:34;;;;;;;3.00;2.80;;;;;;;22.46;55.83;99465.06;106940;1253;73921;-79
2023/08/08 09:11:02;;;;;;;4.00;3.10;;;;;;;22.60;55.99;99462.77;108161;1254;68789;-77
2023/08/08 09:13:39;;;;;;;2.20;2.00;;;;;;;22.69;55.70;99466.71;107938;1254;73132;-78
2023/08/08 09:16:08;;;;;;;2.50;1.60;;;;;;;22.82;55.37;99462.67;106580;1260;60479;-77
2023/08/08 09:18:38;;;;;;;1.90;1.70;;;;;;;23.02;54.64;99455.50;105619;1254;307802;-78
2023/08/08 09:23:02;;;;;;;2.70;1.80;;;;;;;23.42;53.33;99459.32;102988;1294;599659;-78
2023/08/08 09:25:30;;;;;;;2.00;1.70;;;;;;;23.50;52.45;99459.27;105442;1272;60077;-81
2023/08/08 09:27:58;;;;;;;1.80;1.70;;;;;;;23.51;52.39;99466.06;106239;1260;59117;-80
2023/08/08 09:30:25;;;;;;;1.70;1.60;;;;;;;23.59;52.64;99469.96;106650;1260;72298;-82
2023/08/08 09:32:53;;;;;;;1.80;1.70;;;;;;;23.81;52.50;99469.91;105655;1265;68737;-80
2023/08/08 09:35:23;;;;;;;1.70;1.60;;;;;;;24.06;52.05;99461.16;105763;1260;72527;-80
2023/08/08 09:37:54;;;;;;;3.20;2.00;;;;;;;24.20;51.68;99456.77;105731;1257;319930;-81
2023/08/08 09:40:22;;;;;;;2.20;2.00;;;;;;;24.22;51.87;99462.80;105969;1262;59311;-80
2023/08/08 09:42:53;;;;;;;2.10;1.50;;;;;;;24.16;51.56;99465.98;106726;1262;70662;-80
2023/08/08 09:45:22;;;;;;;2.80;1.80;;;;;;;24.24;51.00;99473.73;107414;1257;70316;-79
2023/08/08 09:47:52;;;;;;;2.40;1.50;;;;;;;24.22;50.59;99471.00;107396;1257;72439;-80
2023/08/08 09:50:19;;;;;;;2.10;1.90;;;;;;;24.14;51.18;99471.09;106329;1257;60273;-80
2023/08/08 09:52:47;;;;;;;1.70;1.60;;;;;;;24.20;50.42;99484.14;106434;1257;59616;-80
2023/08/08 09:55:15;;;;;;;2.10;1.80;;;;;;;24.23;49.10;99470.73;106997;1260;76104;-78
2023/08/08 09:57:44;;;;;;;2.60;1.50;;;;;;;24.24;49.67;99467.81;106706;1262;68751;-79
2023/08/08 10:00:15;;;;;;;2.40;1.90;;;;;;;24.22;50.14;99467.10;106429;1262;71061;-79
2023/08/08 10:02:45;;;;;;;1.90;1.80;;;;;;;24.18;50.58;99464.20;108403;1257;59203;-79
2023/08/08 10:05:14;;;;;;;4.60;1.60;;;;;;;24.13;51.04;99468.95;106345;1257;62252;-79
2023/08/08 10:07:42;;;;;;;3.00;2.10;;;;;;;24.09;50.61;99470.84;106564;1261;76188;-78
2023/08/08 10:10:10;;;;;;;1.90;1.80;;;;;;;24.05;50.59;99468.59;107251;1259;70023;-76
2023/08/08 10:12:41;;;;;;;2.80;1.60;;;;;;;24.07;50.33;99467.46;107441;1257;71330;-78
2023/08/08 10:15:10;;;;;;;1.80;1.70;;;;;;;24.18;50.49;99471.91;107994;1257;59504;-79
2023/08/08 10:17:38;;;;;;;1.60;1.50;;;;;;;-67.07;19.50;39789.84;104706;1260;1003240;-79
2023/08/08 10:20:11;;;;;;;1.60;1.50;;;;;;;-128.00;-1.00;-1.00;102308;1263;1061740;-79
2023/08/08 10:22:43;;;;;;;1.80;1.70;;;;;;;-128.00;-1.00;-1.00;102484;1252;1058925;-80
2023/08/08 10:25:18;;;;;;;2.70;1.50;;;;;;;-128.00;-1.00;-1.00;102586;1258;1059315;-80
2023/08/08 10:27:46;;;;;;;2.00;1.80;;;;;;;-128.00;-1.00;-1.00;102634;1254;1047399;-79
2023/08/08 10:30:15;;;;;;;1.60;1.40;;;;;;;-128.00;-1.00;-1.00;102599;1251;1004449;-79
2023/08/08 10:32:45;;;;;;;1.80;1.60;;;;;;;-128.00;-1.00;-1.00;102643;1256;1060069;-78
2023/08/08 10:35:14;;;;;;;2.00;1.90;;;;;;;-128.00;-1.00;-1.00;103221;1256;1058062;-80
2023/08/08 10:37:52;;;;;;;1.90;1.70;;;;;;;-128.00;-1.00;-1.00;103622;1256;1005490;-79
2023/08/08 10:40:20;;;;;;;2.30;1.70;;;;;;;-128.00;-1.00;-1.00;103500;1256;1049452;-80
2023/08/08 10:42:48;;;;;;;2.30;1.70;;;;;;;-128.00;-1.00;-1.00;102920;1256;1003897;-80
2023/08/08 10:45:16;;;;;;;1.80;1.70;;;;;;;-128.00;-1.00;-1.00;103016;1256;1003825;-79
2023/08/08 10:47:47;;;;;;;3.10;1.50;;;;;;;-128.00;-1.00;-1.00;102719;1251;1006691;-79
2023/08/08 10:50:16;;;;;;;1.70;1.60;;;;;;;-128.00;-1.00;-1.00;102927;1256;1062041;-79
2023/08/08 10:52:52;;;;;;;1.80;1.60;;;;;;;-128.00;-1.00;-1.00;103030;1251;1048060;-79
2023/08/08 10:55:32;;;;;;;1.70;1.50;;;;;;;-128.00;-1.00;-1.00;104024;1251;1050970;-80
2023/08/08 10:58:07;;;;;;;1.60;1.50;;;;;;;-128.00;-1.00;-1.00;104508;1254;1059464;-79
2023/08/08 11:00:39;;;;;;;1.60;1.50;;;;;;;-128.00;-1.00;-1.00;103849;1257;1057168;-80
2023/08/08 11:03:08;;;;;;;1.80;1.70;;;;;;;-128.00;-1.00;-1.00;102386;1256;1059397;-79
2023/08/08 11:05:37;;;;;;;1.90;1.50;;;;;;;-128.00;-1.00;-1.00;103102;1253;1048095;-78
2023/08/08 11:08:06;;;;;;;1.80;1.50;;;;;;;-128.00;-1.00;-1.00;103386;1256;1004317;-81
2023/08/08 11:10:39;;;;;;;1.80;1.70;;;;;;;-128.00;-1.00;-1.00;103175;1257;1006759;-79
2023/08/08 11:13:08;;;;;;;4.40;1.60;;;;;;;-128.00;-1.00;-1.00;103571;1251;1057352;-78
2023/08/08 11:15:36;;;;;;;2.20;2.00;;;;;;;-128.00;-1.00;-1.00;103239;1256;1004718;-78
2023/08/08 11:18:08;;;;;;;4.10;1.80;;;;;;;-128.00;-1.00;-1.00;103248;1256;1049682;-78
2023/08/08 11:20:36;;;;;;;3.80;1.50;;;;;;;-128.00;-1.00;-1.00;102410;1256;1047544;-78
2023/08/08 11:23:10;;;;;;;1.80;1.70;;;;;;;-128.00;-1.00;-1.00;102498;1251;1004523;-78
2023/08/08 11:25:40;;;;;;;2.20;1.50;;;;;;;-128.00;-1.00;-1.00;102477;1251;1057225;-80
2023/08/08 11:28:08;;;;;;;1.40;1.30;;;;;;;-128.00;-1.00;-1.00;102390;1256;1060983;-79
2023/08/08 11:30:38;;;;;;;4.10;1.60;;;;;;;-128.00;-1.00;-1.00;102519;1257;1004676;-79